createdAt,value
2022-12-31T00:02:23.463Z,99226.03
2022-12-31T00:04:50.531Z,99213.16
2022-12-31T00:07:17.553Z,99213.97
2022-12-31T00:09:44.476Z,99195.06
2022-12-31T00:12:11.587Z,99213.13
2022-12-31T00:14:38.766Z,99209.69
2022-12-31T00:17:05.767Z,99193.34
2022-12-31T00:19:32.845Z,99192.44
2022-12-31T00:21:59.746Z,99202.78
2022-12-31T00:24:31.126Z,99204.50
2022-12-31T00:26:58.187Z,99214.84
2022-12-31T00:29:25.140Z,99198.47
2022-12-31T00:31:52.180Z,99199.34
2022-12-31T00:34:19.144Z,99205.31
2022-12-31T00:36:46.279Z,99205.34
2022-12-31T00:39:13.206Z,99207.06
2022-12-31T00:41:40.669Z,99219.97
2022-12-31T00:44:07.682Z,99222.56
2022-12-31T00:49:02.229Z,99229.47
2022-12-31T00:51:29.723Z,99230.31
2022-12-31T00:53:57.386Z,99224.28
2022-12-31T00:56:27.178Z,99214.84
2022-12-31T00:58:54.497Z,99226.88
2022-12-31T01:01:23.919Z,99220.00
2022-12-31T01:03:53.477Z,99211.38
2022-12-31T01:06:20.858Z,99202.75
2022-12-31T01:08:49.287Z,99197.59
2022-12-31T01:11:19.581Z,99191.56
2022-12-31T01:13:51.941Z,99199.31
2022-12-31T01:16:21.609Z,99191.56
2022-12-31T01:18:49.340Z,99194.97
2022-12-31T01:21:17.214Z,99197.56
2022-12-31T01:23:44.268Z,99199.28
2022-12-31T01:26:13.748Z,99189.81
2022-12-31T01:28:40.853Z,99199.25
2022-12-31T01:31:10.335Z,99194.09
2022-12-31T01:33:37.549Z,99194.09
2022-12-31T01:36:06.531Z,99183.75
2022-12-31T01:38:34.665Z,99187.19
2022-12-31T01:41:02.220Z,99186.34
2022-12-31T01:43:47.821Z,99169.97
2022-12-31T01:46:22.001Z,99177.69
2022-12-31T01:48:52.027Z,99174.25
2022-12-31T01:51:19.453Z,99169.09
2022-12-31T01:53:46.831Z,99165.63
2022-12-31T01:56:14.220Z,99172.53
2022-12-31T01:58:44.726Z,99175.09
2022-12-31T02:01:20.108Z,99182.00
2022-12-31T02:03:47.261Z,99187.16
2022-12-31T02:06:19.039Z,99182.88
2022-12-31T02:08:45.830Z,99185.41
2022-12-31T02:11:34.549Z,99188.84
2022-12-31T02:14:08.745Z,99181.09
2022-12-31T02:16:43.611Z,99166.50
2022-12-31T02:19:48.258Z,99151.88
2022-12-31T02:22:52.567Z,99153.59
2022-12-31T02:25:23.939Z,99148.41
2022-12-31T02:28:09.427Z,99142.38
2022-12-31T02:30:36.960Z,99132.88
2022-12-31T02:33:27.051Z,99137.19
2022-12-31T02:36:04.045Z,99147.53
2022-12-31T02:38:37.395Z,99156.97
2022-12-31T02:41:04.709Z,99161.25
2022-12-31T02:43:31.779Z,99158.66
2022-12-31T02:46:20.663Z,99160.38
2022-12-31T02:49:06.627Z,99156.91
2022-12-31T02:51:54.788Z,99144.00
2022-12-31T02:54:39.259Z,99137.09
2022-12-31T02:57:18.249Z,99150.84
2022-12-31T03:00:12.040Z,99158.53
2022-12-31T03:02:41.312Z,99158.53
2022-12-31T03:05:09.448Z,99138.69
2022-12-31T03:07:36.374Z,99132.66
2022-12-31T03:10:03.525Z,99139.53
2022-12-31T03:12:51.579Z,99155.03
2022-12-31T03:15:34.681Z,99142.91
2022-12-31T03:18:06.773Z,99148.03
2022-12-31T03:21:10.657Z,99134.25
2022-12-31T03:23:41.003Z,99141.97
2022-12-31T03:26:11.135Z,99134.28
2022-12-31T03:28:48.036Z,99136.03
2022-12-31T03:31:16.527Z,99135.16
2022-12-31T03:33:43.541Z,99142.06
2022-12-31T03:36:14.970Z,99142.94
2022-12-31T03:38:42.338Z,99149.84
2022-12-31T03:41:10.776Z,99154.16
2022-12-31T03:43:37.986Z,99166.19
2022-12-31T03:46:05.052Z,99163.59
2022-12-31T03:48:32.083Z,99168.81
2022-12-31T03:50:58.935Z,99149.84
2022-12-31T03:53:26.424Z,99160.22
2022-12-31T03:55:54.012Z,99159.38
2022-12-31T03:58:21.727Z,99173.16
2022-12-31T04:00:48.963Z,99166.22
2022-12-31T04:03:16.140Z,99169.69
2022-12-31T04:05:43.127Z,99167.09
2022-12-31T04:08:10.103Z,99168.84
2022-12-31T04:10:37.157Z,99177.47
2022-12-31T04:13:04.999Z,99176.59
2022-12-31T04:15:32.193Z,99174.00
2022-12-31T04:17:59.187Z,99162.81
2022-12-31T04:20:26.805Z,99184.34
2022-12-31T04:22:53.900Z,99189.50
2022-12-31T04:25:20.838Z,99184.28
2022-12-31T04:27:47.887Z,99178.25
2022-12-31T04:30:14.928Z,99165.31
2022-12-31T04:32:42.215Z,99162.72
2022-12-31T04:35:10.178Z,99163.59
2022-12-31T04:37:37.195Z,99167.03
2022-12-31T04:40:06.669Z,99184.28
2022-12-31T04:42:34.659Z,99162.69
2022-12-31T04:45:01.683Z,99179.94
2022-12-31T04:47:28.839Z,99171.34
2022-12-31T04:49:55.868Z,99186.00
2022-12-31T04:52:23.089Z,99183.38
2022-12-31T04:54:50.060Z,99185.97
2022-12-31T04:57:17.033Z,99197.16
2022-12-31T04:59:44.018Z,99200.56
2022-12-31T05:02:11.318Z,99201.44
2022-12-31T05:04:38.527Z,99193.63
2022-12-31T05:07:05.592Z,99200.53
2022-12-31T05:09:32.494Z,99192.75
2022-12-31T05:11:59.490Z,99193.59
2022-12-31T05:14:26.504Z,99184.09
2022-12-31T05:16:53.874Z,99173.72
2022-12-31T05:19:20.842Z,99173.72
2022-12-31T05:22:07.663Z,99178.88
2022-12-31T05:24:34.774Z,99172.84
2022-12-31T05:27:02.024Z,99192.69
2022-12-31T05:29:29.008Z,99190.06
2022-12-31T05:31:55.856Z,99180.56
2022-12-31T05:34:22.929Z,99183.13
2022-12-31T05:36:49.888Z,99192.66
2022-12-31T05:39:16.939Z,99180.56
2022-12-31T05:41:43.799Z,99171.03
2022-12-31T05:44:11.208Z,99185.72
2022-12-31T05:46:38.123Z,99190.88
2022-12-31T05:49:05.114Z,99185.66
2022-12-31T05:51:32.170Z,99191.69
2022-12-31T05:53:59.280Z,99194.28
2022-12-31T05:56:26.341Z,99187.38
2022-12-31T05:58:53.200Z,99190.81
2022-12-31T06:01:20.504Z,99186.53
2022-12-31T06:03:47.744Z,99182.19
2022-12-31T06:06:14.779Z,99182.22
2022-12-31T06:08:41.661Z,99198.56
2022-12-31T06:11:08.560Z,99190.78
2022-12-31T06:13:35.569Z,99192.47
2022-12-31T06:16:07.811Z,99189.88
2022-12-31T06:18:35.017Z,99199.34
2022-12-31T06:21:04.189Z,99201.91
2022-12-31T06:23:31.546Z,99207.09
2022-12-31T06:26:02.889Z,99202.75
2022-12-31T06:28:29.857Z,99206.16
2022-12-31T06:31:04.323Z,99211.34
2022-12-31T06:33:31.516Z,99207.00
2022-12-31T06:36:00.298Z,99211.28
2022-12-31T06:38:28.811Z,99218.16
2022-12-31T06:40:56.007Z,99214.66
2022-12-31T06:43:23.286Z,99220.69
2022-12-31T06:45:50.151Z,99221.50
2022-12-31T06:48:17.128Z,99224.94
2022-12-31T06:50:44.031Z,99230.94
2022-12-31T06:53:11.883Z,99237.84
2022-12-31T06:55:39.133Z,99234.38
2022-12-31T06:58:06.402Z,99231.75
2022-12-31T07:00:33.882Z,99225.69
2022-12-31T07:03:11.071Z,99229.97
2022-12-31T07:06:16.847Z,99239.44
2022-12-31T07:08:49.683Z,99242.00
2022-12-31T07:11:25.748Z,99257.53
2022-12-31T07:13:59.331Z,99253.19
2022-12-31T07:16:32.470Z,99257.47
2022-12-31T07:19:19.761Z,99250.53
2022-12-31T07:21:48.983Z,99242.72
2022-12-31T07:24:16.447Z,99254.78
2022-12-31T07:26:57.346Z,99256.50
2022-12-31T07:29:42.856Z,99257.34
2022-12-31T07:32:09.876Z,99255.56
2022-12-31T07:34:48.516Z,99262.47
2022-12-31T07:37:44.502Z,99265.91
2022-12-31T07:40:18.989Z,99253.75
2022-12-31T07:43:07.782Z,99271.00
2022-12-31T07:45:38.248Z,99247.66
2022-12-31T07:48:19.348Z,99266.63
2022-12-31T07:50:46.461Z,99264.03
2022-12-31T07:53:13.802Z,99267.44
2022-12-31T07:55:40.732Z,99276.06
2022-12-31T07:58:24.462Z,99260.44
2022-12-31T08:00:53.090Z,99263.91
2022-12-31T08:03:56.857Z,99256.91
2022-12-31T08:06:54.809Z,99262.09
2022-12-31T08:09:33.804Z,99265.56
2022-12-31T08:12:02.091Z,99273.34
2022-12-31T08:14:29.919Z,99277.63
2022-12-31T08:16:57.792Z,99274.13
2022-12-31T08:19:34.323Z,99279.31
2022-12-31T08:22:17.992Z,99292.31
2022-12-31T08:24:54.235Z,99283.63
2022-12-31T08:27:30.877Z,99289.69
2022-12-31T08:30:18.372Z,99279.25
2022-12-31T08:33:00.524Z,99293.06
2022-12-31T08:35:43.810Z,99298.22
2022-12-31T08:38:32.340Z,99293.03
2022-12-31T08:41:17.207Z,99292.13
2022-12-31T08:44:07.527Z,99281.72
2022-12-31T08:47:02.782Z,99287.75
2022-12-31T08:49:32.947Z,99281.72
2022-12-31T08:52:01.000Z,99271.28
2022-12-31T08:54:29.427Z,99273.81
2022-12-31T08:57:19.296Z,99270.31
2022-12-31T08:59:55.371Z,99268.53
2022-12-31T09:02:25.490Z,99278.91
2022-12-31T09:05:26.052Z,99268.44
2022-12-31T09:08:14.755Z,99257.16
2022-12-31T09:10:49.204Z,99267.56
2022-12-31T09:13:25.780Z,99271.00
2022-12-31T09:16:08.255Z,99264.97
2022-12-31T09:18:39.744Z,99255.34
2022-12-31T09:21:10.122Z,99260.47
2022-12-31T09:23:37.426Z,99259.56
2022-12-31T09:26:29.429Z,99256.06
2022-12-31T09:29:17.701Z,99251.66
2022-12-31T09:31:47.506Z,99250.72
2022-12-31T09:34:25.873Z,99242.06
2022-12-31T09:37:00.186Z,99241.13
2022-12-31T09:39:40.500Z,99242.81
2022-12-31T09:42:35.501Z,99249.75
2022-12-31T09:45:24.303Z,99233.38
2022-12-31T09:48:29.003Z,99228.19
2022-12-31T09:51:33.446Z,99220.38
2022-12-31T09:54:21.767Z,99219.53
2022-12-31T09:57:10.602Z,99216.88
2022-12-31T09:59:54.805Z,99210.78
2022-12-31T10:02:43.446Z,99203.84
2022-12-31T10:05:47.872Z,99202.09
2022-12-31T10:08:39.364Z,99206.44
2022-12-31T10:11:15.033Z,99194.31
2022-12-31T10:14:26.807Z,99177.88
2022-12-31T10:17:09.479Z,99183.00
2022-12-31T10:20:14.643Z,99180.41
2022-12-31T10:22:53.831Z,99182.06
2022-12-31T10:25:39.915Z,99185.53
2022-12-31T10:28:15.959Z,99189.81
2022-12-31T10:30:56.374Z,99185.47
2022-12-31T10:33:46.054Z,99186.41
2022-12-31T10:36:23.872Z,99185.53
2022-12-31T10:39:12.839Z,99170.84
2022-12-31T10:42:10.265Z,99166.53
2022-12-31T10:44:43.252Z,99163.06
2022-12-31T10:47:45.823Z,99162.22
2022-12-31T10:50:21.914Z,99144.06
2022-12-31T10:53:27.938Z,99141.47
2022-12-31T10:55:57.778Z,99142.28
2022-12-31T10:58:30.559Z,99141.44
2022-12-31T11:01:35.331Z,99124.09
2022-12-31T11:04:33.537Z,99124.00
2022-12-31T11:07:38.287Z,99124.00
2022-12-31T11:10:40.472Z,99116.16
2022-12-31T11:13:29.146Z,99115.31
2022-12-31T11:16:14.694Z,99111.78
2022-12-31T11:19:17.013Z,99093.56
2022-12-31T11:22:08.816Z,99107.47
2022-12-31T11:24:57.339Z,99095.34
2022-12-31T11:27:49.320Z,99090.13
2022-12-31T11:30:27.846Z,99085.75
2022-12-31T11:33:07.941Z,99087.50
2022-12-31T11:36:12.297Z,99083.16
2022-12-31T11:38:52.943Z,99078.81
2022-12-31T11:41:28.960Z,99074.47
2022-12-31T11:44:15.021Z,99063.16
2022-12-31T11:47:03.711Z,99049.22
2022-12-31T11:49:44.180Z,99053.44
2022-12-31T11:52:42.152Z,99057.66
2022-12-31T11:55:46.627Z,99052.47
2022-12-31T11:58:19.573Z,99047.22
2022-12-31T12:01:05.204Z,99044.56
2022-12-31T12:03:32.708Z,99038.28
2022-12-31T12:05:59.777Z,99037.31
2022-12-31T12:08:27.692Z,99036.41
2022-12-31T12:11:04.028Z,99039.78
2022-12-31T12:13:31.412Z,99038.78
2022-12-31T12:16:00.405Z,99031.72
2022-12-31T12:18:37.157Z,99017.78
2022-12-31T12:21:12.552Z,99024.66
2022-12-31T12:23:40.425Z,99021.13
2022-12-31T12:26:07.847Z,99013.28
2022-12-31T12:28:44.702Z,99007.19
2022-12-31T12:31:22.624Z,99007.19
2022-12-31T12:33:51.105Z,98995.06
2022-12-31T12:36:20.422Z,99005.47
2022-12-31T12:38:47.702Z,98997.63
2022-12-31T12:41:25.212Z,99004.50
2022-12-31T12:44:16.931Z,99001.88
2022-12-31T12:46:49.019Z,98998.38
2022-12-31T12:49:32.680Z,99012.19
2022-12-31T12:52:33.469Z,99006.88
2022-12-31T12:55:18.343Z,98995.59
2022-12-31T12:58:23.111Z,99007.69
2022-12-31T13:01:15.161Z,99003.34
2022-12-31T13:07:26.561Z,99017.09
2022-12-31T13:10:03.900Z,99007.59
2022-12-31T13:13:22.173Z,99019.75
2022-12-31T13:15:37.488Z,99009.22
2022-12-31T13:18:29.087Z,99011.75
2022-12-31T13:21:00.558Z,99015.13
2022-12-31T13:23:40.126Z,99016.81
2022-12-31T13:26:28.456Z,99008.06
2022-12-31T13:28:56.343Z,98990.66
2022-12-31T13:31:34.088Z,99000.22
2022-12-31T13:34:29.262Z,99003.63
2022-12-31T13:36:59.328Z,99000.06
2022-12-31T13:39:29.902Z,99016.41
2022-12-31T13:42:09.688Z,99015.50
2022-12-31T13:44:40.177Z,99024.97
2022-12-31T13:47:12.940Z,99011.84
2022-12-31T13:49:39.944Z,99022.22
2022-12-31T13:52:44.365Z,99030.81
2022-12-31T13:55:18.963Z,99031.59
2022-12-31T13:58:09.790Z,99031.50
2022-12-31T14:00:57.382Z,99016.16
2022-12-31T14:03:49.806Z,99016.94
2022-12-31T14:06:34.043Z,99017.63
2022-12-31T14:09:01.196Z,99023.50
2022-12-31T14:11:49.751Z,99016.50
2022-12-31T14:14:42.391Z,99012.88
2022-12-31T14:17:39.406Z,99025.78
2022-12-31T14:20:45.058Z,99030.06
2022-12-31T14:23:26.908Z,99034.19
2022-12-31T14:26:17.085Z,99029.66
2022-12-31T14:29:15.625Z,99027.91
2022-12-31T14:31:49.006Z,99025.19
2022-12-31T14:34:38.065Z,99025.25
2022-12-31T14:37:07.823Z,99031.25
2022-12-31T14:40:02.174Z,99033.78
2022-12-31T14:42:36.994Z,99022.41
2022-12-31T14:45:27.988Z,99020.53
2022-12-31T14:47:57.987Z,99006.59
2022-12-31T14:50:29.499Z,99022.13
2022-12-31T14:53:08.667Z,99006.47
2022-12-31T14:55:40.995Z,98993.50
2022-12-31T14:58:42.667Z,98995.22
2022-12-31T15:01:15.978Z,98998.66
2022-12-31T15:03:46.074Z,98986.47
2022-12-31T15:06:37.917Z,98991.63
2022-12-31T15:09:21.084Z,98986.34
2022-12-31T15:12:12.145Z,98991.44
2022-12-31T15:14:45.550Z,98988.66
2022-12-31T15:17:19.011Z,98985.13
2022-12-31T15:19:59.247Z,99001.63
2022-12-31T15:22:46.073Z,99006.78
2022-12-31T15:25:40.412Z,99005.84
2022-12-31T15:28:31.273Z,99006.66
2022-12-31T15:31:20.062Z,99010.03
2022-12-31T15:33:57.406Z,99006.47
2022-12-31T15:36:27.389Z,99010.69
2022-12-31T15:39:06.697Z,99014.03
2022-12-31T15:42:36.151Z,99006.19
2022-12-31T15:44:51.066Z,99007.72
2022-12-31T15:47:28.751Z,98998.06
2022-12-31T15:49:56.100Z,98998.00
2022-12-31T15:52:26.919Z,98986.59
2022-12-31T15:54:57.647Z,99004.78
2022-12-31T15:57:33.619Z,98999.47
2022-12-31T16:00:02.330Z,98992.38
2022-12-31T16:02:31.899Z,98991.34
2022-12-31T16:04:59.123Z,98995.50
2022-12-31T16:07:27.823Z,98997.97
2022-12-31T16:09:56.809Z,98984.78
2022-12-31T16:12:30.942Z,98970.78
2022-12-31T16:15:00.639Z,98997.56
2022-12-31T16:17:36.112Z,99001.16
2022-12-31T16:20:23.962Z,98980.28
2022-12-31T16:22:53.394Z,98981.13
2022-12-31T16:25:36.811Z,98983.59
2022-12-31T16:28:04.240Z,98999.97
2022-12-31T16:30:32.807Z,99027.66
2022-12-31T16:33:02.187Z,99024.06
2022-12-31T16:35:34.782Z,99033.59
2022-12-31T16:38:08.373Z,99030.06
2022-12-31T16:40:35.717Z,99023.84
2022-12-31T16:43:02.865Z,99027.31
2022-12-31T16:45:33.633Z,99028.94
2022-12-31T16:48:16.396Z,99010.72
2022-12-31T16:50:45.898Z,99027.09
2022-12-31T16:53:17.534Z,99026.31
2022-12-31T16:55:52.285Z,99016.91
2022-12-31T16:58:28.892Z,99018.81
2022-12-31T17:01:02.918Z,99031.00
2022-12-31T17:03:30.259Z,99041.31
2022-12-31T17:06:11.034Z,99035.44
2022-12-31T17:09:05.533Z,99030.13
2022-12-31T17:11:39.397Z,99030.13
2022-12-31T17:14:14.137Z,99029.22
2022-12-31T17:17:03.319Z,99026.78
2022-12-31T17:19:49.924Z,99018.13
2022-12-31T17:22:32.830Z,99030.38
2022-12-31T17:25:09.181Z,99036.38
2022-12-31T17:27:36.720Z,99038.16
2022-12-31T17:30:30.101Z,99035.66
2022-12-31T17:33:09.288Z,99033.06
2022-12-31T17:35:42.408Z,99044.28
2022-12-31T17:38:21.662Z,99050.28
2022-12-31T17:40:55.944Z,99054.63
2022-12-31T17:43:23.884Z,99045.78
2022-12-31T17:45:52.116Z,99068.03
2022-12-31T17:48:20.278Z,99059.00
2022-12-31T17:50:48.873Z,99058.78
2022-12-31T17:53:16.487Z,99068.88
2022-12-31T17:55:48.293Z,99051.31
2022-12-31T17:58:19.307Z,99039.72
2022-12-31T18:00:46.702Z,99037.97
2022-12-31T18:03:13.781Z,99047.34
2022-12-31T18:05:40.736Z,99043.81
2022-12-31T18:08:07.819Z,99042.72
2022-12-31T18:10:37.338Z,99043.66
2022-12-31T18:13:10.983Z,99046.41
2022-12-31T18:15:37.942Z,99044.78
2022-12-31T18:18:22.542Z,99054.69
2022-12-31T18:20:58.762Z,99042.59
2022-12-31T18:23:40.391Z,99030.59
2022-12-31T18:26:08.815Z,99027.38
2022-12-31T18:28:36.079Z,99036.22
2022-12-31T18:31:03.296Z,99049.50
2022-12-31T18:33:30.427Z,99060.84
2022-12-31T18:36:08.816Z,99060.06
2022-12-31T18:38:37.082Z,99057.53
2022-12-31T18:41:04.937Z,99068.75
2022-12-31T18:43:32.389Z,99079.13
2022-12-31T18:45:59.405Z,99073.00
2022-12-31T18:48:26.813Z,99081.78
2022-12-31T18:50:53.970Z,99092.19
2022-12-31T18:53:23.522Z,99093.94
2022-12-31T18:55:55.576Z,99116.47
2022-12-31T18:58:23.377Z,99103.41
2022-12-31T19:00:51.090Z,99107.72
2022-12-31T19:03:27.544Z,99113.72
2022-12-31T19:05:54.831Z,99105.88
2022-12-31T19:08:22.924Z,99105.81
2022-12-31T19:10:51.582Z,99107.56
2022-12-31T19:13:19.786Z,99104.25
2022-12-31T19:15:52.446Z,99110.38
2022-12-31T19:18:19.814Z,99111.19
2022-12-31T19:20:46.834Z,99099.88
2022-12-31T19:23:16.988Z,99083.50
2022-12-31T19:25:44.992Z,99095.75
2022-12-31T19:28:21.803Z,99087.94
2022-12-31T19:30:49.125Z,99091.63
2022-12-31T19:33:16.865Z,99081.31
2022-12-31T19:35:44.277Z,99073.66
2022-12-31T19:38:23.980Z,99087.66
2022-12-31T19:40:52.146Z,99082.47
2022-12-31T19:43:21.753Z,99083.34
2022-12-31T19:45:49.565Z,99087.75
2022-12-31T19:48:25.809Z,99093.09
2022-12-31T19:50:55.939Z,99107.72
2022-12-31T19:53:25.892Z,99110.34
2022-12-31T19:55:53.308Z,99115.50
2022-12-31T19:58:28.107Z,99122.50
2022-12-31T20:01:02.403Z,99124.13
2022-12-31T20:03:31.933Z,99119.75
2022-12-31T20:06:04.714Z,99118.84
2022-12-31T20:08:31.805Z,99117.03
2022-12-31T20:10:59.243Z,99118.75
2022-12-31T20:13:27.233Z,99112.66
2022-12-31T20:15:54.541Z,99114.38
2022-12-31T20:18:23.200Z,99110.09
2022-12-31T20:20:55.532Z,99100.50
2022-12-31T20:23:23.101Z,99100.56
2022-12-31T20:26:19.576Z,99108.47
2022-12-31T20:28:46.677Z,99098.13
2022-12-31T20:31:16.221Z,99106.94
2022-12-31T20:33:43.744Z,99100.00
2022-12-31T20:36:13.296Z,99093.09
2022-12-31T20:38:40.589Z,99088.66
2022-12-31T20:41:29.058Z,99091.28
2022-12-31T20:43:56.093Z,99098.19
2022-12-31T20:46:25.162Z,99100.78
2022-12-31T20:48:55.935Z,99119.06
2022-12-31T20:51:24.022Z,99126.84
2022-12-31T20:53:55.567Z,99145.94
2022-12-31T20:56:23.462Z,99147.63
2022-12-31T20:58:50.751Z,99144.22
2022-12-31T21:01:18.695Z,99146.84
2022-12-31T21:06:35.504Z,99125.13
2022-12-31T21:09:04.727Z,99116.47
2022-12-31T21:11:50.132Z,99108.75
2022-12-31T21:14:17.114Z,99114.00
2022-12-31T21:16:44.561Z,99114.03
2022-12-31T21:19:12.263Z,99110.63
2022-12-31T21:21:39.389Z,99116.72
2022-12-31T21:24:06.709Z,99121.03
2022-12-31T21:26:34.565Z,99136.63
2022-12-31T21:29:01.493Z,99145.38
2022-12-31T21:31:28.535Z,99150.53
2022-12-31T21:33:55.826Z,99152.28
2022-12-31T21:36:22.796Z,99153.19
2022-12-31T21:38:49.852Z,99141.91
2022-12-31T21:41:35.403Z,99135.78
2022-12-31T21:44:02.642Z,99120.97
2022-12-31T21:46:29.913Z,99123.56
2022-12-31T21:49:00.486Z,99120.19
2022-12-31T21:51:30.113Z,99120.09
2022-12-31T21:53:57.665Z,99109.59
2022-12-31T21:56:25.225Z,99113.91
2022-12-31T21:59:17.238Z,99119.06
2022-12-31T22:02:03.485Z,99108.47
2022-12-31T22:07:18.997Z,99096.13
2022-12-31T22:09:47.389Z,99091.88
2022-12-31T22:12:14.608Z,99081.44
2022-12-31T22:15:14.403Z,99090.19
2022-12-31T22:17:28.679Z,99113.56
2022-12-31T22:22:43.363Z,99116.81
2022-12-31T22:25:10.747Z,99112.47
2022-12-31T22:27:38.868Z,99110.72
2022-12-31T22:30:07.177Z,99113.28
2022-12-31T22:32:35.001Z,99111.47
2022-12-31T22:35:03.805Z,99120.13
2022-12-31T22:40:18.137Z,99112.16
2022-12-31T22:42:45.236Z,99124.28
2022-12-31T22:45:13.994Z,99113.00
2022-12-31T22:47:41.213Z,99126.06
2022-12-31T22:50:08.573Z,99118.25
2022-12-31T22:52:35.724Z,99117.44
2022-12-31T22:55:02.782Z,99138.41
2022-12-31T22:57:29.819Z,99139.28
2022-12-31T22:59:56.679Z,99132.31
2022-12-31T23:02:23.694Z,99127.13
2022-12-31T23:04:50.656Z,99135.06
2022-12-31T23:07:17.793Z,99122.03
2022-12-31T23:10:03.142Z,99114.19
2022-12-31T23:12:30.169Z,99115.88
2022-12-31T23:15:15.517Z,99107.25
2022-12-31T23:18:01.251Z,99113.34
2022-12-31T23:20:46.963Z,99119.44
2022-12-31T23:23:17.251Z,99123.81
2022-12-31T23:25:49.162Z,99124.66
2022-12-31T23:28:20.046Z,99127.00
2022-12-31T23:30:47.293Z,99108.75
2022-12-31T23:33:19.821Z,99122.88
2022-12-31T23:35:47.237Z,99124.50
2022-12-31T23:38:16.704Z,99114.03
2022-12-31T23:40:44.100Z,99121.88
2022-12-31T23:43:19.386Z,99148.59
2022-12-31T23:45:46.309Z,99137.28
2022-12-31T23:48:13.255Z,99116.53
2022-12-31T23:50:41.007Z,99108.75
2022-12-31T23:53:08.071Z,99122.63
2022-12-31T23:55:35.055Z,99107.78
2022-12-31T23:58:01.999Z,99100.81
